Time;durP1;ratioP1;P1;durP2;ratioP2;P2;SDS_P1;SDS_P2;PMS_P1;PMS_P2;Temp;Humidity;BMP_temperature;BMP_pressure;BME280_temperature;BME280_humidity;BME280_pressure;Samples;Min_cycle;Max_cycle;Signal;HPM_P1;HPM_P2
2021/12/25 00:00:55;;;;;;;;;;;;;;;3.80;100.00;98911.47;6270125;28;19924;-82
2021/12/25 00:03:56;;;;;;;;;;;;;;;3.83;100.00;98911.34;6270238;28;20039;-82
2021/12/25 00:06:57;;;;;;;;;;;;;;;3.75;100.00;98910.91;6270974;28;19928;-82
2021/12/25 00:09:58;;;;;;;;;;;;;;;3.76;100.00;98917.72;6271416;28;19921;-82
2021/12/25 00:12:58;;;;;;;;;;;;;;;3.70;100.00;98916.28;6269824;28;19921;-76
2021/12/25 00:15:59;;;;;;;;;;;;;;;3.62;100.00;98914.09;6271339;28;19992;-76
2021/12/25 00:19:00;;;;;;;;;;;;;;;3.67;100.00;98916.44;6270299;28;19998;-76
2021/12/25 00:22:00;;;;;;;;;;;;;;;3.63;100.00;98918.34;6269395;28;19921;-76
2021/12/25 00:25:01;;;;;;;;;;;;;;;3.62;100.00;98920.97;6270257;28;19920;-76
2021/12/25 00:31:42;;;;;;;;;;;;;;;3.61;100.00;98912.41;6264466;28;20414;-82
2021/12/25 00:34:43;;;;;;;;;;;;;;;3.62;100.00;98928.72;6271078;28;19921;-81
2021/12/25 00:37:44;;;;;;;;;;;;;;;3.65;100.00;98926.00;6270194;28;19928;-81
2021/12/25 00:40:45;;;;;;;;;;;;;;;3.62;100.00;98927.00;6269946;28;19920;-82
2021/12/25 00:43:46;;;;;;;;;;;;;;;3.61;100.00;98921.91;6270209;28;20272;-82
2021/12/25 00:46:46;;;;;;;;;;;;;;;3.58;100.00;98928.06;6271197;28;19921;-81
2021/12/25 00:49:47;;;;;;;;;;;;;;;3.63;100.00;98920.09;6253441;28;20363;-82
2021/12/25 00:52:48;;;;;;;;;;;;;;;3.63;100.00;98938.16;6271127;28;19925;-76
2021/12/25 00:55:48;;;;;;;;;;;;;;;3.62;100.00;98928.72;6253234;28;19921;-76
2021/12/25 00:58:49;;;;;;;;;;;;;;;3.71;100.00;98943.75;6271104;28;20371;-75
2021/12/25 01:01:50;;;;;;;;;;;;;;;3.65;100.00;98938.91;6271132;28;20402;-75
2021/12/25 01:04:50;;;;;;;;;;;;;;;3.66;100.00;98940.56;6269763;28;19924;-76
2021/12/25 01:07:51;;;;;;;;;;;;;;;3.71;100.00;98945.50;6270901;28;19923;-75
2021/12/25 01:10:52;;;;;;;;;;;;;;;3.75;100.00;98940.09;6269732;28;19920;-76
2021/12/25 01:14:02;;;;;;;;;;;;;;;3.75;100.00;98947.03;6270886;28;19928;-75
2021/12/25 01:20:31;;;;;;;;;;;;;;;3.74;100.00;98938.41;6270900;28;19927;-75
2021/12/25 01:30:00;;;;;;;;;;;;;;;3.71;100.00;98935.19;6270801;28;19920;-75
2021/12/25 01:49:15;;;;;;;;;;;;;;;3.69;100.00;98942.16;6274747;28;19925;-76
2021/12/25 01:52:15;;;;;;;;;;;;;;;3.77;100.00;98943.44;6274881;28;19979;-76
2021/12/25 01:55:18;;;;;;;;;;;;;;;3.65;100.00;98938.91;6274674;28;19920;-76
2021/12/25 01:58:19;;;;;;;;;;;;;;;3.73;100.00;98935.94;6273543;28;19928;-81
2021/12/25 02:01:20;;;;;;;;;;;;;;;3.73;100.00;98938.53;6273309;28;20020;-81
2021/12/25 02:04:20;;;;;;;;;;;;;;;3.74;100.00;98941.00;6274495;28;19920;-81
2021/12/25 02:07:21;;;;;;;;;;;;;;;3.73;100.00;98939.34;6273057;28;19920;-81
2021/12/25 02:10:22;;;;;;;;;;;;;;;3.73;100.00;98949.66;6272988;28;19921;-81
2021/12/25 02:13:24;;;;;;;;;;;;;;;3.79;100.00;98951.13;6274380;28;20294;-81
2021/12/25 02:16:29;;;;;;;;;;;;;;;3.83;100.00;98956.03;6272954;28;19920;-82
2021/12/25 02:19:43;;;;;;;;;;;;;;;3.89;100.00;98952.31;6274112;28;19967;-81
2021/12/25 02:22:46;;;;;;;;;;;;;;;3.74;100.00;98956.47;6273022;28;19926;-81
2021/12/25 02:25:47;;;;;;;;;;;;;;;3.82;100.00;98962.09;6274059;28;19920;-82
2021/12/25 02:28:48;;;;;;;;;;;;;;;3.77;100.00;98953.75;6272751;28;19948;-81
2021/12/25 02:31:49;;;;;;;;;;;;;;;3.78;100.00;98952.84;6274215;28;19927;-81
2021/12/25 02:34:49;;;;;;;;;;;;;;;3.81;100.00;98954.44;6272598;28;19921;-82
2021/12/25 02:37:50;;;;;;;;;;;;;;;3.86;100.00;98955.03;6272502;28;20291;-81
2021/12/25 02:40:51;;;;;;;;;;;;;;;3.78;100.00;98952.84;6272373;28;19927;-81
2021/12/25 02:43:52;;;;;;;;;;;;;;;3.83;100.00;98955.22;6273569;28;19998;-81
2021/12/25 02:46:55;;;;;;;;;;;;;;;3.83;100.00;98950.06;6272515;28;20393;-81
2021/12/25 02:49:55;;;;;;;;;;;;;;;3.86;100.00;98952.47;6272141;28;19951;-81
2021/12/25 02:52:57;;;;;;;;;;;;;;;3.83;100.00;98957.78;6272267;28;19920;-81
2021/12/25 02:55:58;;;;;;;;;;;;;;;3.87;100.00;98961.88;6273203;28;19920;-81
2021/12/25 02:58:58;;;;;;;;;;;;;;;3.84;100.00;98962.84;6273303;28;20394;-82
2021/12/25 03:02:05;;;;;;;;;;;;;;;3.83;100.00;98958.63;6273124;28;20015;-82
2021/12/25 03:05:06;;;;;;;;;;;;;;;3.87;100.00;98959.31;6273257;28;20336;-81
2021/12/25 03:08:08;;;;;;;;;;;;;;;3.92;100.00;98959.06;6239138;28;20467;-82
2021/12/25 03:11:10;;;;;;;;;;;;;;;3.86;100.00;98965.38;6271620;28;19921;-82
2021/12/25 03:14:31;;;;;;;;;;;;;;;3.92;100.00;98956.47;6272992;28;20386;-75
2021/12/25 03:17:32;;;;;;;;;;;;;;;3.96;100.00;98965.72;6272823;28;20011;-76
2021/12/25 03:20:33;;;;;;;;;;;;;;;4.02;100.00;98974.00;6272722;28;19921;-75
2021/12/25 03:23:35;;;;;;;;;;;;;;;4.03;100.00;98970.47;6272644;28;19924;-75
2021/12/25 03:26:36;;;;;;;;;;;;;;;4.03;100.00;98975.63;6254804;28;19926;-76
2021/12/25 03:29:40;;;;;;;;;;;;;;;4.08;100.00;98975.44;6272497;28;19943;-75
2021/12/25 03:32:41;;;;;;;;;;;;;;;4.12;100.00;98976.94;6271396;28;19920;-75
2021/12/25 03:35:41;;;;;;;;;;;;;;;4.18;100.00;98975.75;6272193;28;19921;-76
2021/12/25 03:38:43;;;;;;;;;;;;;;;4.24;100.00;98983.19;6272371;28;19966;-76
2021/12/25 03:41:44;;;;;;;;;;;;;;;4.16;100.00;98983.63;6272234;28;19927;-76
2021/12/25 03:44:45;;;;;;;;;;;;;;;4.24;100.00;98970.28;6271094;28;19960;-76
2021/12/25 03:47:48;;;;;;;;;;;;;;;4.21;100.00;98981.63;6271969;28;20363;-76
2021/12/25 03:57:43;;;;;;;;;;;;;;;4.23;100.00;98987.53;6271784;28;19921;-75
2021/12/25 04:00:46;;;;;;;;;;;;;;;4.18;100.00;98992.13;6270653;28;19978;-76
2021/12/25 04:04:01;;;;;;;;;;;;;;;4.13;100.00;98985.50;6271932;28;19927;-76
2021/12/25 04:07:12;;;;;;;;;;;;;;;4.22;100.00;98977.28;6270462;28;19920;-76
2021/12/25 04:10:13;;;;;;;;;;;;;;;4.22;100.00;98982.44;6270570;28;19928;-76
2021/12/25 04:13:15;;;;;;;;;;;;;;;4.23;100.00;98979.78;6270388;28;20375;-76
2021/12/25 04:16:16;;;;;;;;;;;;;;;4.17;100.00;98980.09;6271721;28;19925;-81
2021/12/25 04:19:17;;;;;;;;;;;;;;;4.22;100.00;98985.88;6271601;28;19921;-75
2021/12/25 04:22:26;;;;;;;;;;;;;;;4.20;100.00;98995.44;6270323;28;19924;-76
2021/12/25 04:25:29;;;;;;;;;;;;;;;4.18;100.00;98999.00;6270362;28;20334;-75
2021/12/25 04:28:42;;;;;;;;;;;;;;;4.23;100.00;98991.88;6270309;28;20015;-76
2021/12/25 05:05:00;;;;;;;;;;;;;;;4.04;100.00;99013.47;6271161;28;20003;-76
2021/12/25 05:08:01;;;;;;;;;;;;;;;4.03;100.00;99013.53;6271528;28;19968;-75
2021/12/25 05:11:01;;;;;;;;;;;;;;;4.12;100.00;99015.66;6275953;28;19928;-76
2021/12/25 05:14:02;;;;;;;;;;;;;;;4.08;100.00;99011.56;6275807;28;19927;-76
2021/12/25 05:17:03;;;;;;;;;;;;;;;4.19;100.00;99018.75;6274502;28;19920;-76
2021/12/25 05:20:04;;;;;;;;;;;;;;;4.22;100.00;99027.19;6274448;28;19956;-76
2021/12/25 05:23:05;;;;;;;;;;;;;;;4.26;100.00;99024.44;6274360;28;19928;-76
2021/12/25 05:26:06;;;;;;;;;;;;;;;4.15;100.00;99041.31;6275278;28;20015;-77
2021/12/25 05:29:07;;;;;;;;;;;;;;;4.19;100.00;99039.41;6275335;28;19921;-76
2021/12/25 05:32:08;;;;;;;;;;;;;;;4.25;100.00;99039.09;6275304;28;19925;-77
2021/12/25 05:35:09;;;;;;;;;;;;;;;4.27;100.00;99041.63;6274068;28;20302;-77
2021/12/25 05:38:14;;;;;;;;;;;;;;;4.35;100.00;99045.47;6275056;28;20410;-77
2021/12/25 05:41:14;;;;;;;;;;;;;;;4.25;100.00;99049.44;6274261;28;19920;-77
2021/12/25 05:44:15;;;;;;;;;;;;;;;4.27;100.00;99044.19;6273911;28;20302;-77
2021/12/25 05:47:16;;;;;;;;;;;;;;;4.24;100.00;99047.75;6256917;28;19963;-77
2021/12/25 05:50:17;;;;;;;;;;;;;;;4.30;100.00;99052.59;6273684;28;19947;-77
2021/12/25 05:53:17;;;;;;;;;;;;;;;4.30;100.00;99044.03;6256919;28;19924;-77
2021/12/25 05:56:18;;;;;;;;;;;;;;;4.31;100.00;99056.03;6274716;28;19932;-76
2021/12/25 05:59:19;;;;;;;;;;;;;;;4.40;100.00;99058.13;6273371;28;19920;-77
2021/12/25 06:02:19;;;;;;;;;;;;;;;4.34;100.00;99061.03;6256851;28;20383;-77
2021/12/25 06:05:20;;;;;;;;;;;;;;;4.34;100.00;99055.88;6256685;28;19921;-77
2021/12/25 06:08:21;;;;;;;;;;;;;;;4.37;100.00;99066.06;6273373;28;19975;-76
2021/12/25 06:11:23;;;;;;;;;;;;;;;4.34;100.00;99076.53;6273176;28;20299;-77
2021/12/25 06:14:23;;;;;;;;;;;;;;;4.28;100.00;99074.25;6274318;28;19920;-76
2021/12/25 06:17:25;;;;;;;;;;;;;;;4.33;100.00;99073.13;6274336;28;20371;-77
2021/12/25 06:20:26;;;;;;;;;;;;;;;4.23;100.00;99079.66;6274157;28;19952;-77
2021/12/25 06:23:29;;;;;;;;;;;;;;;4.31;100.00;99098.19;6274071;28;20286;-77
2021/12/25 06:26:30;;;;;;;;;;;;;;;4.42;100.00;99101.03;6272784;28;20359;-78
2021/12/25 06:29:31;;;;;;;;;;;;;;;4.44;100.00;99113.91;6273969;28;19960;-78
2021/12/25 06:32:31;;;;;;;;;;;;;;;4.41;100.00;99103.72;6272654;28;19928;-78
2021/12/25 06:35:32;;;;;;;;;;;;;;;4.36;100.00;99098.78;6272527;28;19921;-79
2021/12/25 06:38:33;;;;;;;;;;;;;;;4.40;100.00;99099.47;6272537;28;19928;-78
2021/12/25 06:41:33;;;;;;;;;;;;;;;4.36;100.00;99105.69;6273650;28;20338;-79
2021/12/25 06:44:34;;;;;;;;;;;;;;;4.41;100.00;99098.56;6272311;28;19921;-78
2021/12/25 06:47:35;;;;;;;;;;;;;;;4.40;100.00;99095.13;6272317;28;20015;-79
2021/12/25 06:50:36;;;;;;;;;;;;;;;4.37;100.00;99095.28;6272250;28;19928;-78
2021/12/25 06:53:39;;;;;;;;;;;;;;;4.38;100.00;99099.53;6273325;28;19928;-78
2021/12/25 06:56:40;;;;;;;;;;;;;;;4.41;100.00;99106.31;6256132;28;20329;-78
2021/12/25 06:59:40;;;;;;;;;;;;;;;4.45;100.00;99110.41;6272063;28;19928;-79
2021/12/25 07:02:41;;;;;;;;;;;;;;;4.48;100.00;99119.75;6272207;28;20441;-79
2021/12/25 07:05:41;;;;;;;;;;;;;;;4.41;100.00;99109.72;6271883;28;19931;-79
2021/12/25 07:08:42;;;;;;;;;;;;;;;4.51;100.00;99112.69;6272005;28;19930;-78
2021/12/25 07:11:43;;;;;;;;;;;;;;;4.51;100.00;99127.31;6273295;28;19989;-78
2021/12/25 07:14:43;;;;;;;;;;;;;;;4.54;100.00;99122.84;6271678;28;19927;-78
2021/12/25 07:17:44;;;;;;;;;;;;;;;4.58;100.00;99124.38;6271733;28;20374;-78
2021/12/25 07:20:48;;;;;;;;;;;;;;;4.61;100.00;99129.38;6272745;28;19920;-78
2021/12/25 07:23:49;;;;;;;;;;;;;;;4.53;100.00;99125.50;6272712;28;20111;-79
2021/12/25 07:26:49;;;;;;;;;;;;;;;4.57;100.00;99124.44;6272602;28;19932;-79
2021/12/25 07:29:50;;;;;;;;;;;;;;;4.61;100.00;99126.81;6271556;28;19921;-78
2021/12/25 07:32:51;;;;;;;;;;;;;;;4.63;100.00;99130.16;6270794;28;20019;-79
2021/12/25 07:35:51;;;;;;;;;;;;;;;4.52;100.00;99147.94;6272221;28;19975;-79
2021/12/25 07:38:53;;;;;;;;;;;;;;;4.52;100.00;99158.25;6271203;28;19920;-79
2021/12/25 07:41:54;;;;;;;;;;;;;;;4.59;100.00;99148.44;6270997;28;19925;-78
2021/12/25 07:45:02;;;;;;;;;;;;;;;4.61;100.00;99152.66;6271053;28;20303;-79
2021/12/25 07:48:04;;;;;;;;;;;;;;;4.72;100.00;99146.09;6272071;28;19921;-79
2021/12/25 07:51:05;;;;;;;;;;;;;;;4.74;100.00;99139.91;6271027;28;20022;-78
2021/12/25 07:54:05;;;;;;;;;;;;;;;4.72;100.00;99159.00;6272374;28;20301;-78
2021/12/25 07:57:06;;;;;;;;;;;;;;;4.80;100.00;99149.13;6270879;28;19927;-78
2021/12/25 08:00:09;;;;;;;;;;;;;;;4.88;100.00;99143.53;6271823;28;19924;-78
2021/12/25 08:03:10;;;;;;;;;;;;;;;4.93;100.00;99157.88;6270553;28;19920;-78
2021/12/25 08:06:11;;;;;;;;;;;;;;;4.89;100.00;99160.72;6271691;28;19921;-78
2021/12/25 08:09:12;;;;;;;;;;;;;;;4.91;100.00;99164.06;6268485;28;20020;-78
2021/12/25 08:12:12;;;;;;;;;;;;;;;4.88;100.00;99156.44;6269998;28;19928;-78
2021/12/25 08:15:14;;;;;;;;;;;;;;;5.00;100.00;99153.22;6264769;28;20394;-77
2021/12/25 08:18:15;;;;;;;;;;;;;;;4.97;100.00;99172.31;6260537;28;19967;-78
2021/12/25 08:21:16;;;;;;;;;;;;;;;5.03;100.00;99174.59;6265823;28;19920;-78
2021/12/25 08:24:17;;;;;;;;;;;;;;;5.02;100.00;99170.34;6271011;28;19924;-78
2021/12/25 08:27:18;;;;;;;;;;;;;;;5.11;100.00;99178.53;6272103;28;19974;-78
2021/12/25 08:30:20;;;;;;;;;;;;;;;5.17;100.00;99179.06;6270013;28;19928;-78
2021/12/25 08:33:21;;;;;;;;;;;;;;;5.10;100.00;99182.88;6270738;28;19921;-78
2021/12/25 08:36:22;;;;;;;;;;;;;;;5.17;100.00;99181.63;6271376;28;20346;-78
2021/12/25 08:39:22;;;;;;;;;;;;;;;5.15;100.00;99183.47;6241912;28;19967;-79
2021/12/25 08:42:24;;;;;;;;;;;;;;;5.25;100.00;99189.00;6265879;28;19928;-78
2021/12/25 08:45:41;;;;;;;;;;;;;;;5.31;100.00;99198.16;6266089;28;19963;-78
2021/12/25 08:48:42;;;;;;;;;;;;;;;5.37;100.00;99196.09;6275433;28;19921;-78
2021/12/25 08:51:43;;;;;;;;;;;;;;;5.43;100.00;99193.16;6276258;28;19931;-78
2021/12/25 08:54:48;;;;;;;;;;;;;;;5.44;100.00;99209.56;6276246;28;19920;-78
2021/12/25 08:57:49;;;;;;;;;;;;;;;5.49;100.00;99196.34;6276292;28;19931;-78
2021/12/25 09:00:55;;;;;;;;;;;;;;;5.53;100.00;99196.09;6274943;28;19920;-78
2021/12/25 09:03:56;;;;;;;;;;;;;;;5.58;100.00;99198.44;6275341;28;19920;-78
2021/12/25 09:06:57;;;;;;;;;;;;;;;5.67;100.00;99197.13;6271357;28;20375;-79
2021/12/25 09:09:58;;;;;;;;;;;;;;;5.63;100.00;99197.28;6274902;28;19979;-78
2021/12/25 09:12:58;;;;;;;;;;;;;;;5.64;100.00;99204.13;6275054;28;19925;-78
2021/12/25 09:15:59;;;;;;;;;;;;;;;5.63;100.00;99194.69;6276856;28;19925;-78
2021/12/25 09:19:00;;;;;;;;;;;;;;;5.63;100.00;99191.28;6275620;28;20272;-78
2021/12/25 09:22:00;;;;;;;;;;;;;;;5.63;100.00;99192.09;6275409;28;20015;-78
2021/12/25 09:25:01;;;;;;;;;;;;;;;5.65;100.00;99205.78;6275871;28;19924;-78
2021/12/25 09:28:02;;;;;;;;;;;;;;;5.44;100.00;99204.38;6275257;28;19924;-78
2021/12/25 09:31:03;;;;;;;;;;;;;;;5.25;100.00;99202.75;6276917;28;20015;-79
2021/12/25 09:34:04;;;;;;;;;;;;;;;5.22;100.00;99205.50;6273749;28;19932;-79
2021/12/25 09:37:06;;;;;;;;;;;;;;;5.11;100.00;99196.66;6271725;28;20011;-78
2021/12/25 09:40:08;;;;;;;;;;;;;;;5.07;100.00;99193.38;6271875;28;20294;-79
2021/12/25 09:43:09;;;;;;;;;;;;;;;4.97;100.00;99187.00;6272984;28;19928;-79
2021/12/25 09:46:10;;;;;;;;;;;;;;;4.97;100.00;99176.66;6273343;28;19921;-79
2021/12/25 09:49:11;;;;;;;;;;;;;;;4.87;100.00;99178.06;6272507;28;19921;-79
2021/12/25 09:52:11;;;;;;;;;;;;;;;4.93;100.00;99181.16;6255930;28;19997;-79
2021/12/25 09:55:13;;;;;;;;;;;;;;;4.90;100.00;99177.88;6272983;28;20307;-79
2021/12/25 09:58:14;;;;;;;;;;;;;;;4.67;100.00;99169.56;6272205;28;19921;-79
2021/12/25 10:01:30;;;;;;;;;;;;;;;4.62;100.00;99169.81;6273142;28;19963;-79
2021/12/25 10:04:33;;;;;;;;;;;;;;;4.73;100.00;99174.41;6271793;28;20023;-78
2021/12/25 10:07:33;;;;;;;;;;;;;;;4.63;100.00;99174.06;6270002;28;20694;-78
2021/12/25 10:10:36;;;;;;;;;;;;;;;4.58;100.00;99160.53;6272656;28;19925;-77
2021/12/25 10:13:41;;;;;;;;;;;;;;;4.52;100.00;99162.59;6266239;28;19921;-78
2021/12/25 10:16:42;;;;;;;;;;;;;;;4.59;100.00;99156.19;6265619;28;19927;-78
2021/12/25 10:19:43;;;;;;;;;;;;;;;4.41;100.00;99163.16;6272969;28;19920;-79
2021/12/25 10:22:55;;;;;;;;;;;;;;;4.18;100.00;99159.94;6273094;28;19921;-78
2021/12/25 10:25:57;;;;;;;;;;;;;;;4.52;100.00;99162.59;6273970;28;20275;-78
2021/12/25 10:28:58;;;;;;;;;;;;;;;4.58;100.00;99157.13;6272839;28;19921;-78
2021/12/25 10:32:02;;;;;;;;;;;;;;;4.56;100.00;99154.59;6273581;28;19931;-78
2021/12/25 10:35:11;;;;;;;;;;;;;;;4.68;100.00;99145.41;6229066;28;1244902;-78
2021/12/25 10:38:12;;;;;;;;;;;;;;;4.42;100.00;99136.38;6273932;28;20391;-79
2021/12/25 10:41:17;;;;;;;;;;;;;;;4.52;100.00;99131.59;6272389;28;20003;-78
2021/12/25 10:44:26;;;;;;;;;;;;;;;4.44;100.00;99132.81;6272154;28;19921;-78
2021/12/25 10:47:46;;;;;;;;;;;;;;;4.27;100.00;99143.16;6272609;28;19990;-78
2021/12/25 10:50:50;;;;;;;;;;;;;;;4.22;100.00;99147.69;6272179;28;19928;-78
2021/12/25 10:53:51;;;;;;;;;;;;;;;4.08;100.00;99153.56;6273602;28;19927;-79
2021/12/25 10:56:52;;;;;;;;;;;;;;;4.14;100.00;99140.34;6273288;28;19975;-79
2021/12/25 11:00:03;;;;;;;;;;;;;;;4.01;100.00;99145.25;6271945;28;19921;-78
2021/12/25 11:03:13;;;;;;;;;;;;;;;3.89;100.00;99147.59;6271984;28;20330;-77
2021/12/25 11:06:16;;;;;;;;;;;;;;;3.80;100.00;99138.56;6272173;28;19928;-77
2021/12/25 11:09:30;;;;;;;;;;;;;;;3.69;100.00;99133.91;6273115;28;19924;-77
2021/12/25 11:12:57;;;;;;;;;;;;;;;3.71;100.00;99134.69;6258795;28;19960;-78
2021/12/25 11:16:52;;;;;;;;;;;;;;;;;;;;;
2021/12/25 11:21:07;;;;;;;;;;;;;;;3.55;100.00;99119.06;6271195;28;19921;-78
2021/12/25 11:28:14;;;;;;;;;;;;;;;3.32;100.00;99116.75;6228442;28;19927;-78
2021/12/25 11:31:22;;;;;;;;;;;;;;;3.25;100.00;99117.91;6270079;28;19928;-80
2021/12/25 11:34:27;;;;;;;;;;;;;;;3.36;100.00;99113.94;6219963;28;19921;-82
2021/12/25 11:37:32;;;;;;;;;;;;;;;3.54;100.00;99114.84;6202051;28;20007;-81
2021/12/25 11:44:53;;;;;;;;;;;;;;;3.43;100.00;99117.06;6217337;28;19928;-80
2021/12/25 11:48:01;;;;;;;;;;;;;;;3.44;100.00;99116.19;6219923;28;19925;-80
2021/12/25 11:51:02;;;;;;;;;;;;;;;3.39;100.00;99118.13;6225121;28;19925;-80
2021/12/25 11:54:13;;;;;;;;;;;;;;;3.37;100.00;99104.47;6270595;28;19928;-80
2021/12/25 12:00:34;;;;;;;;;;;;;;;3.42;100.00;99113.66;6271517;28;20380;-82
2021/12/25 12:03:46;;;;;;;;;;;;;;;3.42;100.00;99115.41;6270414;28;19958;-82
2021/12/25 12:07:04;;;;;;;;;;;;;;;3.36;100.00;99108.78;6270323;28;20011;-81
2021/12/25 12:10:13;;;;;;;;;;;;;;;3.50;100.00;99112.47;6270215;28;19924;-81
2021/12/25 12:13:22;;;;;;;;;;;;;;;3.33;100.00;99126.13;6271563;28;19983;-81
2021/12/25 12:16:40;;;;;;;;;;;;;;;3.39;100.00;99128.44;6270200;28;19921;-80
2021/12/25 12:19:41;;;;;;;;;;;;;;;3.40;100.00;99124.97;6271371;28;19920;-81
2021/12/25 12:23:00;;;;;;;;;;;;;;;3.29;100.00;99119.44;6270271;28;19979;-81
2021/12/25 12:26:06;;;;;;;;;;;;;;;3.29;100.00;99122.03;6271235;28;19920;-83
2021/12/25 12:29:09;;;;;;;;;;;;;;;3.32;100.00;99115.00;6254483;28;19921;-81
2021/12/25 12:32:16;;;;;;;;;;;;;;;3.18;100.00;99120.78;6270191;28;19920;-82
2021/12/25 12:35:36;;;;;;;;;;;;;;;3.21;100.00;99122.38;6271046;28;19970;-83
2021/12/25 12:41:49;;;;;;;;;;;;;;;3.27;100.00;99129.00;6270842;28;19972;-82
2021/12/25 12:45:06;;;;;;;;;;;;;;;3.01;100.00;99123.31;6270812;28;20359;-82
2021/12/25 12:48:10;;;;;;;;;;;;;;;2.99;100.00;99118.19;6269479;28;20022;-81
2021/12/25 12:51:18;;;;;;;;;;;;;;;2.94;100.00;99117.56;6269883;28;19920;-84
2021/12/25 12:54:48;;;;;;;;;;;;;;;3.03;100.00;99117.16;6269024;28;19921;-82
2021/12/25 12:57:48;;;;;;;;;;;;;;;3.11;100.00;99113.38;6250532;28;19921;-76
2021/12/25 13:00:53;;;;;;;;;;;;;;;3.10;100.00;99112.56;6269162;28;19932;-77
2021/12/25 13:04:25;;;;;;;;;;;;;;;3.14;100.00;99119.25;6270621;28;19921;-76
2021/12/25 13:07:30;;;;;;;;;;;;;;;3.17;100.00;99116.53;6270290;28;20440;-75
2021/12/25 13:10:42;;;;;;;;;;;;;;;2.83;100.00;99124.94;6269023;28;19927;-76
2021/12/25 13:13:54;;;;;;;;;;;;;;;2.96;100.00;99112.34;6253544;28;20290;-77
2021/12/25 13:16:55;;;;;;;;;;;;;;;2.89;100.00;99113.53;6269804;28;19921;-76
2021/12/25 13:19:56;;;;;;;;;;;;;;;2.88;100.00;99102.38;6270811;28;19955;-76
2021/12/25 13:22:57;;;;;;;;;;;;;;;2.91;100.00;99104.00;6269385;28;19950;-77
2021/12/25 13:26:00;;;;;;;;;;;;;;;2.67;100.00;99106.75;6270566;28;20272;-75
2021/12/25 13:29:05;;;;;;;;;;;;;;;2.82;100.00;99100.06;6263682;28;19927;-76
2021/12/25 13:32:06;;;;;;;;;;;;;;;2.48;100.00;99111.84;6261483;28;20283;-83
2021/12/25 13:35:08;;;;;;;;;;;;;;;2.57;100.00;99113.19;6261602;28;19936;-83
2021/12/25 13:38:09;;;;;;;;;;;;;;;2.61;100.00;99123.31;6244968;28;19960;-83
2021/12/25 13:41:10;;;;;;;;;;;;;;;2.65;100.00;99123.16;6258424;28;20338;-83
2021/12/25 13:44:12;;;;;;;;;;;;;;;2.51;100.00;99131.47;6262881;28;19983;-82
2021/12/25 13:47:12;;;;;;;;;;;;;;;2.50;100.00;99132.41;6272225;28;19921;-82
2021/12/25 13:50:13;;;;;;;;;;;;;;;2.51;100.00;99131.47;6272641;28;19928;-82
2021/12/25 13:53:20;;;;;;;;;;;;;;;2.44;100.00;99133.47;6271641;28;19924;-82
2021/12/25 13:56:21;;;;;;;;;;;;;;;2.27;100.00;99134.19;6271314;28;19921;-82
2021/12/25 13:59:22;;;;;;;;;;;;;;;1.99;100.00;99137.88;6273566;28;19928;-82
2021/12/25 14:02:25;;;;;;;;;;;;;;;1.98;100.00;99148.25;6272257;28;19924;-83
2021/12/25 14:05:27;;;;;;;;;;;;;;;1.78;100.00;99144.72;6272381;28;19928;-82
2021/12/25 14:08:28;;;;;;;;;;;;;;;1.83;100.00;99134.25;6272085;28;19928;-82
2021/12/25 14:11:28;;;;;;;;;;;;;;;1.71;100.00;99138.16;6273545;28;19966;-82
2021/12/25 14:14:30;;;;;;;;;;;;;;;1.61;100.00;99149.72;6273151;28;19925;-83
2021/12/25 14:17:31;;;;;;;;;;;;;;;1.55;100.00;99160.22;6273040;28;19927;-82
2021/12/25 14:20:34;;;;;;;;;;;;;;;1.61;100.00;99162.56;6272960;28;19921;-82
2021/12/25 14:23:35;;;;;;;;;;;;;;;1.46;100.00;99165.72;6272504;28;19920;-82
2021/12/25 14:26:36;;;;;;;;;;;;;;;1.40;100.00;99169.34;6269372;28;20705;-82
2021/12/25 14:29:37;;;;;;;;;;;;;;;1.27;100.00;99170.72;6272612;28;19951;-82
2021/12/25 14:32:38;;;;;;;;;;;;;;;1.25;100.00;99169.94;6272629;28;19921;-82
2021/12/25 14:35:39;;;;;;;;;;;;;;;1.12;100.00;99162.66;6271112;28;19921;-82
2021/12/25 14:38:41;;;;;;;;;;;;;;;1.20;100.00;99162.41;6238660;28;19928;-83
2021/12/25 14:41:42;;;;;;;;;;;;;;;1.07;100.00;99161.16;6252905;28;19920;-83
2021/12/25 14:44:42;;;;;;;;;;;;;;;0.97;100.00;99140.13;6269252;28;19924;-82
2021/12/25 14:47:57;;;;;;;;;;;;;;;0.98;100.00;99140.03;6269684;28;20414;-82
2021/12/25 14:51:07;;;;;;;;;;;;;;;0.90;100.00;99141.22;6255500;28;19928;-81
2021/12/25 14:54:08;;;;;;;;;;;;;;;0.96;100.00;99156.41;6270638;28;19924;-82
2021/12/25 14:57:09;;;;;;;;;;;;;;;0.76;100.00;99165.69;6270017;28;19982;-82
2021/12/25 15:00:21;;;;;;;;;;;;;;;0.76;100.00;99173.38;6271105;28;19920;-83
2021/12/25 15:03:22;;;;;;;;;;;;;;;0.73;100.00;99170.91;6271092;28;19947;-82
2021/12/25 15:06:23;;;;;;;;;;;;;;;0.60;100.00;99169.66;6271815;28;19925;-81
2021/12/25 15:09:26;;;;;;;;;;;;;;;0.56;100.00;99174.06;6270679;28;19928;-82
2021/12/25 15:12:28;;;;;;;;;;;;;;;0.52;100.00;99182.75;6271844;28;19924;-81
2021/12/25 15:15:29;;;;;;;;;;;;;;;0.47;100.00;99188.91;6270563;28;19925;-80
2021/12/25 15:18:35;;;;;;;;;;;;;;;0.44;100.00;99178.78;6269799;28;20341;-80
2021/12/25 15:21:45;;;;;;;;;;;;;;;0.47;100.00;99184.63;6270108;28;19920;-81
2021/12/25 15:24:53;;;;;;;;;;;;;;;0.38;100.00;99184.94;6270792;28;19928;-80
2021/12/25 15:27:55;;;;;;;;;;;;;;;0.27;100.00;99199.84;6270647;28;19920;-82
2021/12/25 15:30:56;;;;;;;;;;;;;;;0.35;100.00;99198.72;6270771;28;19920;-82
2021/12/25 15:33:58;;;;;;;;;;;;;;;0.46;100.00;99215.50;6269981;28;20406;-82
2021/12/25 15:36:59;;;;;;;;;;;;;;;0.40;100.00;99231.94;6269450;28;19927;-82
2021/12/25 15:40:06;;;;;;;;;;;;;;;0.46;100.00;99236.03;6253639;28;19925;-82
2021/12/25 15:43:06;;;;;;;;;;;;;;;0.15;100.00;99237.84;6270117;28;19989;-82
2021/12/25 15:46:07;;;;;;;;;;;;;;;0.20;100.00;99228.25;6271086;28;19950;-85
2021/12/25 15:49:08;;;;;;;;;;;;;;;-0.04;100.00;99223.94;6270035;28;19927;-83
2021/12/25 15:52:09;;;;;;;;;;;;;;;-0.02;100.00;99225.53;6271041;28;19927;-84
2021/12/25 15:55:11;;;;;;;;;;;;;;;-0.04;100.00;99224.75;6253187;28;19920;-82
2021/12/25 15:58:14;;;;;;;;;;;;;;;-0.08;100.00;99223.16;6247602;28;20372;-83
2021/12/25 16:01:15;;;;;;;;;;;;;;;0.02;100.00;99228.00;6245409;28;19925;-83
2021/12/25 16:04:15;;;;;;;;;;;;;;;-0.05;100.00;99215.38;6265677;28;20401;-82
2021/12/25 16:07:16;;;;;;;;;;;;;;;0.03;100.00;99224.56;6267790;28;19932;-82
2021/12/25 16:10:17;;;;;;;;;;;;;;;-0.18;100.00;99233.75;6268084;28;19935;-81
2021/12/25 16:13:22;;;;;;;;;;;;;;;-0.31;100.00;99233.25;6268768;28;19936;-81
2021/12/25 16:16:23;;;;;;;;;;;;;;;-0.34;100.00;99229.06;6270456;28;19967;-81
2021/12/25 16:19:23;;;;;;;;;;;;;;;-0.33;100.00;99240.16;6268198;28;19920;-81
2021/12/25 16:22:24;;;;;;;;;;;;;;;-0.38;100.00;99244.59;6271368;28;19924;-79
2021/12/25 16:25:25;;;;;;;;;;;;;;;-0.56;100.00;99248.53;6271452;28;20363;-79
2021/12/25 16:28:26;;;;;;;;;;;;;;;-0.44;100.00;99250.72;6271347;28;19921;-79
2021/12/25 16:31:27;;;;;;;;;;;;;;;-0.23;100.00;99256.94;6272159;28;19920;-78
2021/12/25 16:34:27;;;;;;;;;;;;;;;-0.52;100.00;99261.19;6271721;28;20326;-80
2021/12/25 16:37:28;;;;;;;;;;;;;;;-0.58;100.00;99250.28;6272071;28;19925;-79
2021/12/25 16:40:29;;;;;;;;;;;;;;;-0.79;100.00;99264.53;6272271;28;19921;-79
2021/12/25 16:43:31;;;;;;;;;;;;;;;-0.79;100.00;99265.38;6272515;28;20077;-79
2021/12/25 16:46:31;;;;;;;;;;;;;;;-0.87;100.00;99257.88;6271292;28;19928;-78
2021/12/25 16:49:32;;;;;;;;;;;;;;;-0.61;100.00;99267.44;6271590;28;19921;-79
2021/12/25 16:52:33;;;;;;;;;;;;;;;-0.62;100.00;99255.50;6271477;28;19921;-77
2021/12/25 16:55:37;;;;;;;;;;;;;;;-0.76;100.00;99254.19;6271905;28;19921;-77
2021/12/25 16:58:38;;;;;;;;;;;;;;;-0.98;100.00;99247.09;6272875;28;19921;-77
2021/12/25 17:01:39;;;;;;;;;;;;;;;-0.90;100.00;99263.09;6273045;28;20310;-77
2021/12/25 17:04:39;;;;;;;;;;;;;;;-0.96;100.00;99265.84;6273915;28;19924;-77
2021/12/25 17:07:40;;;;;;;;;;;;;;;-0.80;100.00;99271.41;6276303;28;20318;-76
2021/12/25 17:10:41;;;;;;;;;;;;;;;-0.74;100.00;99275.50;6259467;28;20015;-76
2021/12/25 17:13:41;;;;;;;;;;;;;;;-0.58;100.00;99276.75;6272709;28;19920;-77
2021/12/25 17:16:42;;;;;;;;;;;;;;;-0.65;100.00;99278.66;6256205;28;19927;-77
2021/12/25 17:19:43;;;;;;;;;;;;;;;-0.59;100.00;99274.25;6272592;28;19928;-77